Time;durP1;ratioP1;P1;durP2;ratioP2;P2;SDS_P1;SDS_P2;PMS_P1;PMS_P2;Temp;Humidity;BMP_temperature;BMP_pressure;BME280_temperature;BME280_humidity;BME280_pressure;Samples;Min_cycle;Max_cycle;Signal;HPM_P1;HPM_P2
2023/12/30 00:00:03;;;;;;;16.25;2.58;;;;;;;-146.25;100.00;70816.00;5065611;28;20538;-65
2023/12/30 00:02:28;;;;;;;18.02;2.83;;;;;;;-146.25;100.00;70816.00;5076853;28;20575;-65
2023/12/30 00:04:54;;;;;;;19.67;2.45;;;;;;;-146.25;100.00;70816.00;5075114;28;20119;-65
2023/12/30 00:07:19;;;;;;;17.38;2.35;;;;;;;-146.25;100.00;70816.00;5077932;28;20033;-64
2023/12/30 00:09:44;;;;;;;14.00;3.08;;;;;;;-146.25;100.00;70816.00;5080592;28;20036;-66
2023/12/30 00:12:10;;;;;;;14.77;2.45;;;;;;;-146.25;100.00;70816.00;5078472;28;20028;-65
2023/12/30 00:14:35;;;;;;;16.77;2.50;;;;;;;-146.25;100.00;70816.00;5078350;28;20035;-66
2023/12/30 00:17:00;;;;;;;16.90;2.80;;;;;;;-146.25;100.00;70816.00;5080718;28;20071;-65
2023/12/30 00:19:25;;;;;;;16.63;2.65;;;;;;;-146.25;100.00;70816.00;5069719;28;20063;-66
2023/12/30 00:21:52;;;;;;;14.63;2.45;;;;;;;-146.25;100.00;70816.00;5079119;28;20399;-67
2023/12/30 00:24:17;;;;;;;14.88;2.40;;;;;;;-146.25;100.00;70816.00;5077533;28;20458;-65
2023/12/30 00:26:42;;;;;;;16.63;2.60;;;;;;;-146.25;100.00;70816.00;5077742;28;20032;-65
2023/12/30 00:29:08;;;;;;;14.60;2.50;;;;;;;-146.25;100.00;70816.00;5074697;28;20035;-65
2023/12/30 00:31:33;;;;;;;18.23;3.00;;;;;;;-146.25;100.00;70816.00;5080346;28;20558;-63
2023/12/30 00:34:00;;;;;;;18.23;2.78;;;;;;;-146.25;100.00;70816.00;5078589;28;20048;-64
2023/12/30 00:36:26;;;;;;;14.23;2.35;;;;;;;-146.25;100.00;70816.00;5078768;28;20490;-63
2023/12/30 00:38:54;;;;;;;15.70;2.63;;;;;;;-146.25;100.00;70816.00;5075457;28;20170;-63
2023/12/30 00:41:20;;;;;;;13.30;2.30;;;;;;;-146.25;100.00;70816.00;5079620;28;20115;-63
2023/12/30 00:43:45;;;;;;;14.15;2.55;;;;;;;-146.25;100.00;70816.00;5078752;28;20115;-62
2023/12/30 00:46:10;;;;;;;20.63;3.00;;;;;;;-146.25;100.00;70816.00;5080392;28;20032;-63
2023/12/30 00:48:35;;;;;;;13.15;2.63;;;;;;;-146.25;100.00;70816.00;5078899;28;20029;-62
2023/12/30 00:51:01;;;;;;;13.98;3.00;;;;;;;-146.25;100.00;70816.00;5077302;28;20166;-62
2023/12/30 00:53:30;;;;;;;13.98;2.40;;;;;;;-146.25;100.00;70816.00;5075340;28;20028;-62
2023/12/30 00:55:56;;;;;;;19.23;2.70;;;;;;;-146.25;100.00;70816.00;5083514;28;20036;-64
2023/12/30 00:58:22;;;;;;;13.05;2.42;;;;;;;-146.25;100.00;70816.00;5079648;28;20731;-63
2023/12/30 01:00:50;;;;;;;11.82;2.63;;;;;;;-146.25;100.00;70816.00;5079763;28;20032;-64
2023/12/30 01:03:15;;;;;;;12.57;2.40;;;;;;;-146.25;100.00;70816.00;5078339;28;20085;-63
2023/12/30 01:05:40;;;;;;;15.02;2.30;;;;;;;-146.25;100.00;70816.00;5077138;28;20142;-63
2023/12/30 01:08:05;;;;;;;18.70;2.78;;;;;;;-146.25;100.00;70816.00;5079255;28;20024;-63
2023/12/30 01:10:31;;;;;;;15.82;2.63;;;;;;;-146.25;100.00;70816.00;5078459;28;20036;-63
2023/12/30 01:12:56;;;;;;;17.17;2.80;;;;;;;-146.25;100.00;70816.00;5077472;28;20034;-63
2023/12/30 01:15:21;;;;;;;15.02;2.47;;;;;;;-146.25;100.00;70816.00;5078771;28;20054;-63
2023/12/30 01:17:47;;;;;;;14.10;2.70;;;;;;;-146.25;100.00;70816.00;5076861;28;20056;-63
2023/12/30 01:20:12;;;;;;;16.73;2.33;;;;;;;-146.25;100.00;70816.00;5074827;28;20034;-62
2023/12/30 01:22:37;;;;;;;15.48;2.47;;;;;;;-146.25;100.00;70816.00;5081985;28;20036;-63
2023/12/30 01:25:03;;;;;;;15.38;2.85;;;;;;;-146.25;100.00;70816.00;5077184;28;20028;-63
2023/12/30 01:27:28;;;;;;;14.27;2.40;;;;;;;-146.25;100.00;70816.00;5079446;28;20551;-64
2023/12/30 01:29:53;;;;;;;19.33;2.97;;;;;;;-146.25;100.00;70816.00;5076336;28;20139;-65
2023/12/30 01:32:19;;;;;;;16.63;2.67;;;;;;;-146.25;100.00;70816.00;5067848;28;20077;-63
2023/12/30 01:34:44;;;;;;;17.27;2.70;;;;;;;-146.25;100.00;70816.00;5078217;28;20470;-65
2023/12/30 01:37:10;;;;;;;16.60;2.47;;;;;;;-146.25;100.00;70816.00;5077131;28;20037;-64
2023/12/30 01:39:35;;;;;;;15.75;2.70;;;;;;;-146.25;100.00;70816.00;5076859;28;20037;-65
2023/12/30 01:42:01;;;;;;;16.75;2.85;;;;;;;-146.25;100.00;70816.00;5079007;28;20094;-64
2023/12/30 01:44:26;;;;;;;19.08;3.50;;;;;;;-146.25;100.00;70816.00;5078842;28;20043;-64
2023/12/30 01:46:52;;;;;;;18.55;2.72;;;;;;;-146.25;100.00;70816.00;5081498;28;20119;-64
2023/12/30 01:49:17;;;;;;;15.20;2.50;;;;;;;-146.25;100.00;70816.00;5076849;28;20035;-65
2023/12/30 01:51:42;;;;;;;16.83;2.90;;;;;;;-146.25;100.00;70816.00;5078603;28;20403;-64
2023/12/30 01:54:09;;;;;;;15.20;2.55;;;;;;;-146.25;100.00;70816.00;5077710;28;20041;-63
2023/12/30 01:56:34;;;;;;;19.27;3.05;;;;;;;-146.25;100.00;70816.00;5077524;28;20123;-63
2023/12/30 01:59:00;;;;;;;13.05;2.50;;;;;;;-146.25;100.00;70816.00;5077670;28;20481;-63
2023/12/30 02:01:28;;;;;;;17.38;2.80;;;;;;;-146.25;100.00;70816.00;5078814;28;20090;-63
2023/12/30 02:03:54;;;;;;;15.90;2.97;;;;;;;-146.25;100.00;70816.00;5076511;28;20751;-64
2023/12/30 02:06:20;;;;;;;15.75;2.75;;;;;;;-146.25;100.00;70816.00;5076431;28;20032;-64
2023/12/30 02:08:46;;;;;;;15.57;2.60;;;;;;;-146.25;100.00;70816.00;5078274;28;20032;-64
2023/12/30 02:11:13;;;;;;;19.42;2.95;;;;;;;-146.25;100.00;70816.00;5077968;28;20133;-66
2023/12/30 02:13:42;;;;;;;22.55;3.15;;;;;;;-146.25;100.00;70816.00;5077726;28;20040;-66
2023/12/30 02:16:08;;;;;;;19.20;2.88;;;;;;;-146.25;100.00;70816.00;5076206;28;20039;-64
2023/12/30 02:18:33;;;;;;;16.85;3.15;;;;;;;-146.25;100.00;70816.00;5077025;28;20032;-63
2023/12/30 02:20:58;;;;;;;15.27;2.60;;;;;;;-146.25;100.00;70816.00;5080048;28;20117;-63
2023/12/30 02:23:24;;;;;;;19.52;3.00;;;;;;;-146.25;100.00;70816.00;5078331;28;20021;-63
2023/12/30 02:25:49;;;;;;;17.90;2.67;;;;;;;-146.25;100.00;70816.00;5080505;28;20048;-62
2023/12/30 02:28:14;;;;;;;14.30;2.80;;;;;;;-146.25;100.00;70816.00;5073358;28;20028;-63
2023/12/30 02:30:39;;;;;;;18.40;2.70;;;;;;;-146.25;100.00;70816.00;5066273;28;20071;-63
2023/12/30 02:33:06;;;;;;;14.98;2.75;;;;;;;-146.25;100.00;70816.00;5076735;28;20029;-64
2023/12/30 02:35:31;;;;;;;18.67;2.90;;;;;;;-146.25;100.00;70816.00;5078251;28;20040;-63
2023/12/30 02:37:56;;;;;;;18.25;2.97;;;;;;;-146.25;100.00;70816.00;5077833;28;20062;-63
2023/12/30 02:40:22;;;;;;;14.23;3.03;;;;;;;-146.25;100.00;70816.00;5071655;28;20528;-63
2023/12/30 02:42:47;;;;;;;13.18;2.70;;;;;;;-146.25;100.00;70816.00;5075434;28;20369;-64
2023/12/30 02:45:12;;;;;;;16.23;3.08;;;;;;;-146.25;100.00;70816.00;5075351;28;20028;-64
2023/12/30 02:47:38;;;;;;;20.05;2.95;;;;;;;-146.25;100.00;70816.00;5075664;28;20046;-64
2023/12/30 02:50:03;;;;;;;13.02;2.80;;;;;;;-146.25;100.00;70816.00;5076735;28;20036;-65
2023/12/30 02:52:30;;;;;;;16.77;2.90;;;;;;;-146.25;100.00;70816.00;5077147;28;20036;-65
2023/12/30 02:54:56;;;;;;;18.33;2.80;;;;;;;-146.25;100.00;70816.00;5076315;28;20033;-65
2023/12/30 02:57:23;;;;;;;17.40;3.17;;;;;;;-146.25;100.00;70816.00;5065887;28;20047;-65
2023/12/30 02:59:48;;;;;;;12.35;2.65;;;;;;;-146.25;100.00;70816.00;5075905;28;20032;-65
2023/12/30 03:02:13;;;;;;;18.55;3.50;;;;;;;-146.25;100.00;70816.00;5076045;28;20042;-64
2023/12/30 03:04:39;;;;;;;20.75;3.78;;;;;;;-146.25;100.00;70816.00;5076389;28;20119;-65
2023/12/30 03:07:04;;;;;;;17.63;3.45;;;;;;;-146.25;100.00;70816.00;5077725;28;20024;-64
2023/12/30 03:09:29;;;;;;;18.75;3.65;;;;;;;-146.25;100.00;70816.00;5076173;28;20032;-64
2023/12/30 03:11:54;;;;;;;18.05;3.47;;;;;;;-146.25;100.00;70816.00;5077694;28;20025;-63
2023/12/30 03:14:20;;;;;;;17.27;3.78;;;;;;;-146.25;100.00;70816.00;5077308;28;20040;-64
2023/12/30 03:16:45;;;;;;;22.30;4.30;;;;;;;-146.25;100.00;70816.00;5076157;28;20128;-64
2023/12/30 03:19:10;;;;;;;16.55;3.80;;;;;;;-146.25;100.00;70816.00;5071750;28;20036;-64
2023/12/30 03:21:36;;;;;;;15.48;3.72;;;;;;;-146.25;100.00;70816.00;5073996;28;20467;-64
2023/12/30 03:24:01;;;;;;;17.27;4.30;;;;;;;-146.25;100.00;70816.00;5076022;28;20131;-64
2023/12/30 03:26:26;;;;;;;13.18;3.35;;;;;;;-146.25;100.00;70816.00;5078112;28;20020;-64
2023/12/30 03:28:52;;;;;;;19.65;3.65;;;;;;;-146.25;100.00;70816.00;5072107;28;20535;-65
2023/12/30 03:31:24;;;;;;;18.70;4.03;;;;;;;-146.25;100.00;70816.00;5075972;28;20032;-65
2023/12/30 03:33:50;;;;;;;17.15;3.30;;;;;;;-146.25;100.00;70816.00;5078004;28;20499;-65
2023/12/30 03:36:15;;;;;;;16.27;3.15;;;;;;;-146.25;100.00;70816.00;5075983;28;20044;-65
2023/12/30 03:38:40;;;;;;;19.40;3.22;;;;;;;-146.25;100.00;70816.00;5076873;28;20028;-66
2023/12/30 03:41:06;;;;;;;16.80;3.08;;;;;;;-146.25;100.00;70816.00;5079589;28;20436;-67
2023/12/30 03:43:31;;;;;;;17.02;2.72;;;;;;;-146.25;100.00;70816.00;5078783;28;20040;-65
2023/12/30 03:45:56;;;;;;;21.40;3.00;;;;;;;-146.25;100.00;70816.00;5082484;28;20513;-66
2023/12/30 03:48:22;;;;;;;16.02;2.63;;;;;;;-146.25;100.00;70816.00;5079127;28;20035;-66
2023/12/30 03:50:47;;;;;;;13.23;3.08;;;;;;;-146.25;100.00;70816.00;5082566;28;20443;-64
2023/12/30 03:53:13;;;;;;;20.38;2.78;;;;;;;-146.25;100.00;70816.00;5082271;28;20571;-65
2023/12/30 03:55:38;;;;;;;16.45;2.80;;;;;;;-146.25;100.00;70816.00;5079200;28;20036;-64
2023/12/30 03:58:03;;;;;;;17.58;2.80;;;;;;;-146.25;100.00;70816.00;5080381;28;20177;-66
2023/12/30 04:00:29;;;;;;;17.40;3.08;;;;;;;-146.25;100.00;70816.00;5080359;28;20407;-65
2023/12/30 04:02:54;;;;;;;17.35;3.35;;;;;;;-146.25;100.00;70816.00;5082177;28;20085;-64
2023/12/30 04:05:19;;;;;;;16.80;3.00;;;;;;;-146.25;100.00;70816.00;5082184;28;20046;-65
2023/12/30 04:07:45;;;;;;;18.20;3.10;;;;;;;-146.25;100.00;70816.00;5080469;28;20467;-65
2023/12/30 04:10:12;;;;;;;18.77;3.05;;;;;;;-146.25;100.00;70816.00;5079228;28;20098;-65
2023/12/30 04:12:38;;;;;;;17.27;3.08;;;;;;;-146.25;100.00;70816.00;5078368;28;20077;-67
2023/12/30 04:15:04;;;;;;;17.70;2.85;;;;;;;-146.25;100.00;70816.00;5077978;28;20027;-65
2023/12/30 04:17:30;;;;;;;17.75;2.70;;;;;;;-146.25;100.00;70816.00;5080197;28;20086;-64
2023/12/30 04:19:55;;;;;;;16.73;2.92;;;;;;;-146.25;100.00;70816.00;5081112;28;20024;-65
2023/12/30 04:22:20;;;;;;;20.13;2.75;;;;;;;-146.25;100.00;70816.00;5081636;28;20046;-65
2023/12/30 04:24:46;;;;;;;13.65;2.70;;;;;;;-146.25;100.00;70816.00;5078303;28;20040;-66
2023/12/30 04:27:11;;;;;;;17.50;2.90;;;;;;;-146.25;100.00;70816.00;5080763;28;20054;-64
2023/12/30 04:29:36;;;;;;;16.38;2.85;;;;;;;-146.25;100.00;70816.00;5079764;28;20115;-63
2023/12/30 04:32:02;;;;;;;20.25;2.67;;;;;;;-146.25;100.00;70816.00;5078348;28;20032;-63
2023/12/30 04:34:27;;;;;;;18.23;2.88;;;;;;;-146.25;100.00;70816.00;5077727;28;20166;-63
2023/12/30 04:36:53;;;;;;;13.73;2.28;;;;;;;-146.25;100.00;70816.00;5077414;28;20081;-61
2023/12/30 04:39:18;;;;;;;20.38;2.70;;;;;;;-146.25;100.00;70816.00;5077588;28;20391;-63
2023/12/30 04:41:43;;;;;;;17.00;3.03;;;;;;;-146.25;100.00;70816.00;5082440;28;20443;-63
2023/12/30 04:44:08;;;;;;;15.55;2.58;;;;;;;-146.25;100.00;70816.00;5068791;28;20567;-63
2023/12/30 04:46:34;;;;;;;19.00;2.65;;;;;;;-146.25;100.00;70816.00;5068532;28;20056;-63
2023/12/30 04:49:02;;;;;;;15.43;2.42;;;;;;;-146.25;100.00;70816.00;5080201;28;20028;-64
2023/12/30 04:51:28;;;;;;;17.27;2.97;;;;;;;-146.25;100.00;70816.00;5076115;28;20085;-64
2023/12/30 04:53:53;;;;;;;19.67;2.70;;;;;;;-146.25;100.00;70816.00;5082595;28;20036;-64
2023/12/30 04:56:19;;;;;;;17.08;2.83;;;;;;;-146.25;100.00;70816.00;5079566;28;20060;-64
2023/12/30 04:58:44;;;;;;;14.85;2.83;;;;;;;-146.25;100.00;70816.00;5075604;28;20506;-64
2023/12/30 05:01:11;;;;;;;13.65;2.53;;;;;;;-146.25;100.00;70816.00;5077831;28;20036;-64
2023/12/30 05:03:37;;;;;;;20.02;4.68;;;;;;;-146.25;100.00;70816.00;5078168;28;20039;-64
2023/12/30 05:06:02;;;;;;;17.73;2.60;;;;;;;-146.25;100.00;70816.00;5077042;28;20036;-64
2023/12/30 05:08:28;;;;;;;14.93;2.60;;;;;;;-146.25;100.00;70816.00;5077028;28;20048;-64
2023/12/30 05:10:54;;;;;;;17.17;2.60;;;;;;;-146.25;100.00;70816.00;5078842;28;20058;-64
2023/12/30 05:13:20;;;;;;;19.50;3.75;;;;;;;-146.25;100.00;70816.00;5078878;28;20055;-64
2023/12/30 05:15:45;;;;;;;22.08;3.08;;;;;;;-146.25;100.00;70816.00;5077832;28;20047;-64
2023/12/30 05:18:11;;;;;;;17.05;2.40;;;;;;;-146.25;100.00;70816.00;5077177;28;20044;-64
2023/12/30 05:20:37;;;;;;;16.27;2.78;;;;;;;-146.25;100.00;70816.00;5080844;28;20116;-63
2023/12/30 05:23:02;;;;;;;19.80;2.72;;;;;;;-146.25;100.00;70816.00;5076213;28;20122;-63
2023/12/30 05:25:27;;;;;;;13.93;2.40;;;;;;;-146.25;100.00;70816.00;5076853;28;20120;-63
2023/12/30 05:27:53;;;;;;;17.55;2.92;;;;;;;-146.25;100.00;70816.00;5076732;28;20038;-62
2023/12/30 05:30:18;;;;;;;17.33;3.05;;;;;;;-146.25;100.00;70816.00;5081223;28;20042;-63
2023/12/30 05:32:43;;;;;;;17.30;2.90;;;;;;;-146.25;100.00;70816.00;5078871;28;20029;-63
2023/12/30 05:35:09;;;;;;;23.40;3.33;;;;;;;-146.25;100.00;70816.00;5079581;28;20028;-63
2023/12/30 05:37:34;;;;;;;18.83;2.83;;;;;;;-146.25;100.00;70816.00;5075641;28;20043;-63
2023/12/30 05:39:59;;;;;;;17.33;3.63;;;;;;;-146.25;100.00;70816.00;5075739;28;20032;-65
2023/12/30 05:42:24;;;;;;;17.98;3.10;;;;;;;-146.25;100.00;70816.00;5077538;28;20077;-66
2023/12/30 05:44:50;;;;;;;18.83;2.60;;;;;;;-146.25;100.00;70816.00;5075693;28;20028;-65
2023/12/30 05:47:15;;;;;;;21.65;2.90;;;;;;;-146.25;100.00;70816.00;5067132;28;20472;-64
2023/12/30 05:49:40;;;;;;;21.15;3.97;;;;;;;-146.25;100.00;70816.00;5077781;28;20040;-65
2023/12/30 05:52:07;;;;;;;17.75;3.25;;;;;;;-146.25;100.00;70816.00;5081084;28;20475;-65
2023/12/30 05:54:32;;;;;;;21.33;3.45;;;;;;;-146.25;100.00;70816.00;5076248;28;20037;-64
2023/12/30 05:56:59;;;;;;;22.70;2.97;;;;;;;-146.25;100.00;70816.00;5078899;28;20069;-65
2023/12/30 05:59:25;;;;;;;21.60;2.95;;;;;;;-146.25;100.00;70816.00;5076661;28;20344;-64
2023/12/30 06:01:50;;;;;;;17.38;3.00;;;;;;;-146.25;100.00;70816.00;5076319;28;20090;-65
2023/12/30 06:04:15;;;;;;;19.30;2.90;;;;;;;-146.25;100.00;70816.00;5066221;28;20033;-63
2023/12/30 06:06:42;;;;;;;20.92;3.15;;;;;;;-146.25;100.00;70816.00;5077992;28;20501;-63
2023/12/30 06:09:08;;;;;;;15.90;2.67;;;;;;;-146.25;100.00;70816.00;5078479;28;20127;-65
2023/12/30 06:11:33;;;;;;;20.55;3.10;;;;;;;-146.25;100.00;70816.00;5074910;28;20119;-64
2023/12/30 06:13:58;;;;;;;17.20;2.80;;;;;;;-146.25;100.00;70816.00;5067521;28;20483;-65
2023/12/30 06:16:23;;;;;;;18.92;2.88;;;;;;;-146.25;100.00;70816.00;5074816;28;20036;-64
2023/12/30 06:18:49;;;;;;;19.52;2.70;;;;;;;-146.25;100.00;70816.00;5076697;28;20034;-65
2023/12/30 06:21:14;;;;;;;18.40;3.38;;;;;;;-146.25;100.00;70816.00;5077350;28;20102;-66
2023/12/30 06:23:39;;;;;;;18.35;2.88;;;;;;;-146.25;100.00;70816.00;5067489;28;20042;-64
2023/12/30 06:26:05;;;;;;;20.92;2.78;;;;;;;-146.25;100.00;70816.00;5079668;28;20031;-64
2023/12/30 06:28:30;;;;;;;18.75;2.55;;;;;;;-146.25;100.00;70816.00;5077831;28;20060;-65
2023/12/30 06:30:55;;;;;;;18.90;3.20;;;;;;;-146.25;100.00;70816.00;5075419;28;20063;-64
2023/12/30 06:33:22;;;;;;;20.05;3.47;;;;;;;-146.25;100.00;70816.00;5077388;28;20032;-64
2023/12/30 06:35:48;;;;;;;23.23;3.22;;;;;;;-146.25;100.00;70816.00;5073276;28;20474;-64
2023/12/30 06:38:16;;;;;;;19.73;3.03;;;;;;;-146.25;100.00;70816.00;5076496;28;20055;-65
2023/12/30 06:40:42;;;;;;;18.77;3.35;;;;;;;-146.25;100.00;70816.00;5081128;28;20054;-66
2023/12/30 06:43:08;;;;;;;19.08;3.42;;;;;;;-146.25;100.00;70816.00;5087708;28;20028;-65
2023/12/30 06:45:33;;;;;;;18.40;3.05;;;;;;;-146.25;100.00;70816.00;5074916;28;20055;-65
2023/12/30 06:47:59;;;;;;;15.63;3.10;;;;;;;-146.25;100.00;70816.00;5073593;28;20139;-65
2023/12/30 06:50:24;;;;;;;23.83;2.85;;;;;;;-146.25;100.00;70816.00;5072141;28;20142;-63
2023/12/30 06:52:50;;;;;;;14.73;2.80;;;;;;;-146.25;100.00;70816.00;5071523;28;20452;-63
2023/12/30 06:55:15;;;;;;;16.88;3.03;;;;;;;-146.25;100.00;70816.00;5076386;28;20028;-64
2023/12/30 06:57:41;;;;;;;16.27;2.67;;;;;;;-146.25;100.00;70816.00;5071790;28;20883;-63
2023/12/30 07:00:07;;;;;;;18.35;2.92;;;;;;;-146.25;100.00;70816.00;5074302;28;20052;-64
2023/12/30 07:02:33;;;;;;;18.50;3.20;;;;;;;-146.25;100.00;70816.00;5072707;28;20032;-64
2023/12/30 07:04:58;;;;;;;19.73;2.92;;;;;;;-146.25;100.00;70816.00;5074873;28;20556;-65
2023/12/30 07:07:23;;;;;;;16.17;3.10;;;;;;;-146.25;100.00;70816.00;5076340;28;20028;-65
2023/12/30 07:09:49;;;;;;;20.63;3.30;;;;;;;-146.25;100.00;70816.00;5072159;28;20032;-65
2023/12/30 07:12:14;;;;;;;21.58;3.15;;;;;;;-146.25;100.00;70816.00;5074192;28;20071;-66
2023/12/30 07:14:39;;;;;;;16.88;2.90;;;;;;;-146.25;100.00;70816.00;5073771;28;20097;-65
2023/12/30 07:17:06;;;;;;;16.58;2.65;;;;;;;-146.25;100.00;70816.00;5076531;28;20063;-66
2023/12/30 07:19:31;;;;;;;17.35;2.80;;;;;;;-146.25;100.00;70816.00;5063506;28;20078;-65
2023/12/30 07:21:56;;;;;;;21.83;2.90;;;;;;;-146.25;100.00;70816.00;5074804;28;20036;-63
2023/12/30 07:24:21;;;;;;;20.90;3.03;;;;;;;-146.25;100.00;70816.00;5076202;28;20821;-65
2023/12/30 07:26:47;;;;;;;20.90;3.25;;;;;;;-146.25;100.00;70816.00;5077777;28;20044;-65
2023/12/30 07:29:12;;;;;;;22.58;3.38;;;;;;;-146.25;100.00;70816.00;5075438;28;20055;-67
2023/12/30 07:31:37;;;;;;;17.63;3.05;;;;;;;-146.25;100.00;70816.00;5075267;28;20047;-66
2023/12/30 07:34:06;;;;;;;18.38;3.67;;;;;;;-146.25;100.00;70816.00;5074539;28;20047;-66
2023/12/30 07:36:31;;;;;;;18.85;2.95;;;;;;;-146.25;100.00;70816.00;5072914;28;20462;-67
2023/12/30 07:38:57;;;;;;;17.00;3.10;;;;;;;-146.25;100.00;70816.00;5074200;28;20036;-66
2023/12/30 07:41:23;;;;;;;18.15;2.88;;;;;;;-146.25;100.00;70816.00;5073298;28;20123;-67
2023/12/30 07:43:48;;;;;;;21.90;3.17;;;;;;;-146.25;100.00;70816.00;5071157;28;20502;-67
2023/12/30 07:46:14;;;;;;;17.23;3.42;;;;;;;-146.25;100.00;70816.00;5072494;28;20033;-67
2023/12/30 07:48:40;;;;;;;17.33;2.80;;;;;;;-146.25;100.00;70816.00;5073031;28;20032;-67
2023/12/30 07:51:06;;;;;;;17.27;3.05;;;;;;;-146.25;100.00;70816.00;5077133;28;20048;-67
2023/12/30 07:53:31;;;;;;;20.48;2.97;;;;;;;-146.25;100.00;70816.00;5073805;28;20127;-67
2023/12/30 07:55:57;;;;;;;19.63;3.10;;;;;;;-146.25;100.00;70816.00;5076267;28;20492;-67
2023/12/30 07:58:22;;;;;;;18.50;3.22;;;;;;;-146.25;100.00;70816.00;5075991;28;20028;-67
2023/12/30 08:00:47;;;;;;;16.48;2.60;;;;;;;-146.25;100.00;70816.00;5076472;28;20114;-66
2023/12/30 08:03:12;;;;;;;17.92;3.00;;;;;;;-146.25;100.00;70816.00;5070952;28;20020;-66
2023/12/30 08:05:39;;;;;;;23.88;3.20;;;;;;;-146.25;100.00;70816.00;5067587;28;20090;-66
2023/12/30 08:08:05;;;;;;;15.98;3.03;;;;;;;-146.25;100.00;70816.00;5061408;28;20024;-67
2023/12/30 08:10:32;;;;;;;18.70;2.70;;;;;;;-146.25;100.00;70816.00;5062660;28;20511;-68
2023/12/30 08:12:58;;;;;;;18.35;2.90;;;;;;;-146.25;100.00;70816.00;5073587;28;20131;-68
2023/12/30 08:15:23;;;;;;;22.92;3.30;;;;;;;-146.25;100.00;70816.00;5076641;28;20119;-68
2023/12/30 08:17:48;;;;;;;19.15;2.60;;;;;;;-146.25;100.00;70816.00;5077243;28;20437;-68
2023/12/30 08:20:14;;;;;;;17.25;2.70;;;;;;;-146.25;100.00;70816.00;5079889;28;20029;-68
2023/12/30 08:22:40;;;;;;;17.13;2.75;;;;;;;-146.25;100.00;70816.00;5080442;28;20475;-68
2023/12/30 08:25:06;;;;;;;19.20;2.78;;;;;;;-146.25;100.00;70816.00;5081895;28;20086;-68
2023/12/30 08:27:31;;;;;;;18.65;3.10;;;;;;;-146.25;100.00;70816.00;5071013;28;20376;-68
2023/12/30 08:29:56;;;;;;;19.40;2.85;;;;;;;-146.25;100.00;70816.00;5077633;28;20484;-68
2023/12/30 08:32:21;;;;;;;15.65;2.70;;;;;;;-146.25;100.00;70816.00;5085243;28;20032;-67
2023/12/30 08:34:47;;;;;;;16.40;2.83;;;;;;;-146.25;100.00;70816.00;5076428;28;20039;-67
2023/12/30 08:37:12;;;;;;;20.70;2.92;;;;;;;-146.25;100.00;70816.00;5093512;28;20052;-65
2023/12/30 08:39:37;;;;;;;19.50;3.25;;;;;;;-146.25;100.00;70816.00;5079195;28;20021;-65
2023/12/30 08:42:05;;;;;;;17.40;3.10;;;;;;;-146.25;100.00;70816.00;5078654;28;20436;-65
2023/12/30 08:44:30;;;;;;;21.35;3.55;;;;;;;-146.25;100.00;70816.00;5072220;28;20407;-65
2023/12/30 08:46:56;;;;;;;21.55;3.80;;;;;;;-146.25;100.00;70816.00;5086618;28;20040;-65
2023/12/30 08:49:21;;;;;;;17.60;3.33;;;;;;;-146.25;100.00;70816.00;5080998;28;20083;-65
2023/12/30 08:51:46;;;;;;;17.88;3.40;;;;;;;-146.25;100.00;70816.00;5078302;28;20027;-58
2023/12/30 08:54:12;;;;;;;22.05;3.95;;;;;;;-146.25;100.00;70816.00;5077560;28;20036;-62
2023/12/30 08:56:37;;;;;;;18.10;3.45;;;;;;;-146.25;100.00;70816.00;5074634;28;20106;-64
2023/12/30 08:59:02;;;;;;;20.45;3.63;;;;;;;-146.25;100.00;70816.00;5077244;28;20384;-64
2023/12/30 09:01:28;;;;;;;20.77;3.60;;;;;;;-146.25;100.00;70816.00;5078132;28;20089;-63
2023/12/30 09:03:54;;;;;;;22.58;3.95;;;;;;;-146.25;100.00;70816.00;5075055;28;20039;-63
2023/12/30 09:06:20;;;;;;;18.20;3.53;;;;;;;-146.25;100.00;70816.00;5081093;28;20044;-64
2023/12/30 09:08:46;;;;;;;26.10;4.97;;;;;;;-146.25;100.00;70816.00;5075534;28;20036;-64
2023/12/30 09:11:21;;;;;;;19.88;3.25;;;;;;;-146.25;100.00;70816.00;5074865;28;20531;-63
2023/12/30 09:13:51;;;;;;;19.38;4.00;;;;;;;-146.25;100.00;70816.00;5072621;28;20114;-64
2023/12/30 09:16:17;;;;;;;20.73;4.05;;;;;;;-146.25;100.00;70816.00;5074946;28;20071;-64
2023/12/30 09:18:42;;;;;;;22.42;4.55;;;;;;;-146.25;100.00;70816.00;5074451;28;20530;-65
2023/12/30 09:21:07;;;;;;;17.83;3.70;;;;;;;-146.25;100.00;70816.00;5076079;28;20052;-65
2023/12/30 09:23:33;;;;;;;20.25;4.25;;;;;;;-146.25;100.00;70816.00;5072639;28;20036;-62
2023/12/30 09:25:58;;;;;;;18.77;3.75;;;;;;;-146.25;100.00;70816.00;5075736;28;20123;-64
2023/12/30 09:28:23;;;;;;;19.08;3.88;;;;;;;-146.25;100.00;70816.00;5075189;28;20036;-65
2023/12/30 09:30:49;;;;;;;23.10;4.65;;;;;;;-146.25;100.00;70816.00;5074382;28;20046;-64
2023/12/30 09:33:14;;;;;;;19.85;3.33;;;;;;;-146.25;100.00;70816.00;5072201;28;20040;-64
2023/12/30 09:35:39;;;;;;;21.08;4.50;;;;;;;-146.25;100.00;70816.00;5074519;28;20515;-64
2023/12/30 09:38:04;;;;;;;19.98;4.03;;;;;;;-146.25;100.00;70816.00;5064472;28;20044;-66
2023/12/30 09:40:30;;;;;;;21.92;3.80;;;;;;;-146.25;100.00;70816.00;5074822;28;20146;-64
2023/12/30 09:43:03;;;;;;;19.00;3.50;;;;;;;-146.25;100.00;70816.00;5077485;28;20043;-64
2023/12/30 09:45:28;;;;;;;23.25;3.58;;;;;;;-146.25;100.00;70816.00;5081818;28;20189;-63
2023/12/30 09:47:54;;;;;;;21.73;3.95;;;;;;;-146.25;100.00;70816.00;5082691;28;20364;-63
2023/12/30 09:50:20;;;;;;;22.17;4.22;;;;;;;-146.25;100.00;70816.00;5083714;28;20059;-63
2023/12/30 09:52:45;;;;;;;21.67;3.80;;;;;;;-146.25;100.00;70816.00;5086692;28;20029;-63
2023/12/30 09:55:10;;;;;;;20.75;4.10;;;;;;;-146.25;100.00;70816.00;5075821;28;20462;-63
2023/12/30 09:57:36;;;;;;;20.98;4.50;;;;;;;-146.25;100.00;70816.00;5063878;28;20036;-65
2023/12/30 10:00:05;;;;;;;21.67;4.22;;;;;;;-146.25;100.00;70816.00;5073753;28;20028;-65
2023/12/30 10:02:31;;;;;;;19.65;3.58;;;;;;;-146.25;100.00;70816.00;5071627;28;20039;-65
2023/12/30 10:04:57;;;;;;;24.45;4.50;;;;;;;-146.25;100.00;70816.00;5073802;28;20058;-65
2023/12/30 10:07:23;;;;;;;25.00;4.50;;;;;;;-146.25;100.00;70816.00;5072327;28;20056;-63
2023/12/30 10:09:50;;;;;;;24.00;4.45;;;;;;;-146.25;100.00;70816.00;5074175;28;20028;-65
2023/12/30 10:12:15;;;;;;;19.88;4.10;;;;;;;-146.25;100.00;70816.00;5073290;28;20037;-64
2023/12/30 10:14:41;;;;;;;21.00;4.85;;;;;;;-146.25;100.00;70816.00;5073393;28;20036;-64
2023/12/30 10:17:07;;;;;;;23.83;4.32;;;;;;;-146.25;100.00;70816.00;5076385;28;20028;-63
2023/12/30 10:19:32;;;;;;;21.02;4.57;;;;;;;-146.25;100.00;70816.00;5072496;28;20568;-65
2023/12/30 10:21:58;;;;;;;22.33;5.10;;;;;;;-146.25;100.00;70816.00;5074932;28;20036;-64
2023/12/30 10:24:24;;;;;;;23.85;4.65;;;;;;;-146.25;100.00;70816.00;5075509;28;20051;-65
2023/12/30 10:26:49;;;;;;;25.05;5.28;;;;;;;-146.25;100.00;70816.00;5076101;28;20040;-65
2023/12/30 10:29:15;;;;;;;26.65;5.93;;;;;;;-146.25;100.00;70816.00;5075238;28;20037;-64
2023/12/30 10:31:42;;;;;;;20.95;5.20;;;;;;;-146.25;100.00;70816.00;5071564;28;20067;-65
2023/12/30 10:34:07;;;;;;;23.95;6.65;;;;;;;-146.25;100.00;70816.00;5074879;28;20357;-65
2023/12/30 10:36:33;;;;;;;23.48;5.40;;;;;;;-146.25;100.00;70816.00;5079215;28;20052;-64
2023/12/30 10:39:00;;;;;;;21.73;5.25;;;;;;;-146.25;100.00;70816.00;5073228;28;20146;-64
2023/12/30 10:41:26;;;;;;;21.33;5.50;;;;;;;-146.25;100.00;70816.00;5078877;28;20055;-64
2023/12/30 10:43:52;;;;;;;24.05;5.50;;;;;;;-146.25;100.00;70816.00;5078872;28;20477;-64
2023/12/30 10:46:18;;;;;;;22.83;5.47;;;;;;;-146.25;100.00;70816.00;5088435;28;20044;-65
2023/12/30 10:48:52;;;;;;;22.42;5.93;;;;;;;-146.25;100.00;70816.00;5071504;28;20032;-64
2023/12/30 10:51:24;;;;;;;25.10;5.30;;;;;;;-146.25;100.00;70816.00;5064419;28;20040;-64
2023/12/30 10:53:57;;;;;;;23.17;5.82;;;;;;;-146.25;100.00;70816.00;5075012;28;20035;-64